createdAt,value
2023-02-06T00:10:58.614Z,10.43
2023-02-06T00:22:58.726Z,10.43
2023-02-06T00:34:58.744Z,10.43
2023-02-06T00:46:58.741Z,10.42
2023-02-06T00:58:58.618Z,10.42
2023-02-06T01:10:58.724Z,10.42
2023-02-06T01:22:58.616Z,10.42
2023-02-06T01:34:58.627Z,10.42
2023-02-06T01:46:58.615Z,10.42
2023-02-06T01:58:58.716Z,10.41
2023-02-06T02:10:58.610Z,10.42
2023-02-06T02:22:58.712Z,10.42
2023-02-06T02:34:58.632Z,10.41
2023-02-06T02:46:58.724Z,10.41
2023-02-06T02:58:58.746Z,10.41
2023-02-06T03:10:58.614Z,10.41
2023-02-06T03:22:58.679Z,10.41
2023-02-06T03:34:58.682Z,10.40
2023-02-06T03:46:58.735Z,10.40
2023-02-06T03:58:58.729Z,10.40
2023-02-06T04:10:58.619Z,10.40
2023-02-06T04:22:58.732Z,10.40
2023-02-06T04:34:58.744Z,10.40
2023-02-06T04:46:58.713Z,10.40
2023-02-06T04:58:58.701Z,10.40
2023-02-06T05:10:58.620Z,10.39
2023-02-06T05:22:58.619Z,10.39
2023-02-06T05:34:58.730Z,10.39
2023-02-06T05:46:58.684Z,10.39
2023-02-06T05:58:58.759Z,10.39
2023-02-06T06:10:59.263Z,10.39
2023-02-06T06:22:58.716Z,10.38
2023-02-06T06:34:58.697Z,10.38
2023-02-06T06:46:58.728Z,10.38
2023-02-06T06:58:58.738Z,10.38
2023-02-06T07:10:58.620Z,10.38
2023-02-06T07:22:58.636Z,10.38
2023-02-06T07:34:58.619Z,10.38
2023-02-06T07:46:58.686Z,10.38
2023-02-06T07:58:58.716Z,10.38
2023-02-06T08:10:58.622Z,10.39
2023-02-06T08:22:58.622Z,10.40
2023-02-06T08:34:58.618Z,10.41
2023-02-06T08:47:09.254Z,10.42
2023-02-06T08:58:58.620Z,10.46
2023-02-06T09:10:58.620Z,10.53
2023-02-06T09:22:58.617Z,10.55
2023-02-06T09:34:58.639Z,10.60
2023-02-06T09:46:58.676Z,10.63
2023-02-06T09:58:58.721Z,10.75
2023-02-06T10:10:58.636Z,10.99
2023-02-06T10:22:58.617Z,10.83
2023-02-06T10:34:58.711Z,10.90
2023-02-06T10:46:58.755Z,11.07
2023-02-06T10:58:58.622Z,10.93
2023-02-06T11:10:58.711Z,11.12
2023-02-06T11:22:58.702Z,11.19
2023-02-06T11:34:58.674Z,11.25
2023-02-06T11:46:58.627Z,11.33
2023-02-06T11:58:58.634Z,11.49
2023-02-06T12:10:58.626Z,11.57
2023-02-06T12:22:58.616Z,11.78
2023-02-06T12:34:59.448Z,11.92
2023-02-06T12:46:58.638Z,11.98
2023-02-06T12:58:58.710Z,12.07
2023-02-06T13:10:58.724Z,12.24
2023-02-06T13:22:58.735Z,12.30
2023-02-06T13:34:58.697Z,12.34
2023-02-06T13:46:58.711Z,12.38
2023-02-06T13:58:58.685Z,12.39
2023-02-06T14:10:58.619Z,12.42
2023-02-06T14:22:58.707Z,12.47
2023-02-06T14:34:58.739Z,12.52
2023-02-06T14:46:58.749Z,12.57
2023-02-06T14:58:58.690Z,12.59
2023-02-06T15:10:58.624Z,12.57
2023-02-06T15:23:11.625Z,12.52
2023-02-06T15:34:58.622Z,12.50
2023-02-06T15:46:58.734Z,12.46
2023-02-06T15:58:58.735Z,12.42
2023-02-06T16:10:58.723Z,12.40
2023-02-06T16:22:58.646Z,12.38
2023-02-06T16:34:58.615Z,12.36
2023-02-06T16:46:58.743Z,12.34
2023-02-06T16:58:58.719Z,12.32
2023-02-06T17:10:58.616Z,12.30
2023-02-06T17:22:58.709Z,12.28
2023-02-06T17:34:58.730Z,12.27
2023-02-06T17:46:58.721Z,12.25
2023-02-06T17:58:58.616Z,12.23
2023-02-06T18:10:58.624Z,12.21
2023-02-06T18:22:58.630Z,12.20
2023-02-06T18:34:59.869Z,12.18
2023-02-06T18:46:58.692Z,12.17
2023-02-06T18:58:58.622Z,12.15
2023-02-06T19:10:58.704Z,12.14
2023-02-06T19:22:58.718Z,12.12
2023-02-06T19:34:58.696Z,12.11
2023-02-06T19:46:58.622Z,12.10
2023-02-06T19:58:58.606Z,12.08
2023-02-06T20:10:58.623Z,12.07
2023-02-06T20:22:58.692Z,12.05
2023-02-06T20:34:58.735Z,12.05
2023-02-06T20:47:00.049Z,12.03
2023-02-06T20:58:58.700Z,12.02
2023-02-06T21:10:58.905Z,12.01
2023-02-06T21:22:58.641Z,11.99
2023-02-06T21:34:58.733Z,11.98
2023-02-06T21:46:58.731Z,11.97
2023-02-06T21:58:58.681Z,11.96
2023-02-06T22:10:58.613Z,11.95
2023-02-06T22:22:59.052Z,11.93
2023-02-06T22:34:58.700Z,11.92
2023-02-06T22:46:58.723Z,11.91
2023-02-06T22:58:58.617Z,11.90
2023-02-06T23:10:58.729Z,11.89
2023-02-06T23:22:58.733Z,11.88
2023-02-06T23:34:58.619Z,11.87
2023-02-06T23:46:58.637Z,11.86
2023-02-06T23:58:58.728Z,11.85
